Station: Cairns  

  Atmospheric Gas Attenuation - ITU Rec 676-11   ----------------- dB/100km -----------------
Date Time Temp RH % AH g/m3 Dew Point Wind Direction Speed kph Gust kph Barometer mB Rainfall Since 9am 24GHz 47GHz 76GHz 122GHz 134GHz 241GHz
08/05 12:30 28.4 67 18.63 21.7 39 52 1014.1 0 39.8 37.8 72.2 191.0 209.5 728.1
08/05 12:20 28.6 65 18.27 21.4 33 37 1014.2 0 39.0 37.1 70.4 186.3 203.8 708.2
08/05 12:10 28.7 65 18.37 21.5 39 46 1014.3 0 39.2 37.2 70.8 187.2 205.0 712.3
08/05 12:00 28.6 66 18.55 21.6 39 52 1014.4 0 39.6 37.6 71.7 189.6 207.9 722.4
08/05 11:50 28.4 65 18.07 21.2 37 48 1014.5 0 38.6 36.8 69.7 184.5 201.5 700.1
08/05 11:40 28.5 64 17.89 21 39 52 1014.6 0 38.3 36.5 68.9 182.1 198.6 690.3
08/05 11:30 28.5 64 17.89 21 39 52 1014.8 0 38.3 36.5 68.9 182.2 198.7 690.4
08/05 11:20 28.3 68 18.8 21.8 35 43 1015 0 40.2 38.2 73.1 193.4 212.4 738.2
08/05 11:10 28.2 65 17.87 21 43 50 1015.1 0 38.2 36.6 69.1 182.7 199.2 692.2
08/05 11:00 28 67 18.22 21.3 41 52 1015.1 0 39.0 37.3 70.8 187.3 204.8 711.6
08/05 10:50 28 69 18.77 21.8 37 39 1015.2 0 40.1 38.3 73.3 193.8 212.9 739.7
08/05 10:40 27.8 71 19.1 22.1 32 39 1015.4 0 40.9 39.0 75.0 198.4 218.3 758.7
08/05 10:30 27.8 69 18.56 21.6 35 52 1015.4 0 39.7 38.0 72.5 191.9 210.4 731.0
08/05 10:20 27.3 69 18.06 21.3 30 37 1015.5 0 38.7 37.3 70.8 187.1 204.4 710.2
08/05 10:10 26.6 70 17.62 20.7 35 43 1015.6 0 37.9 36.9 69.4 183.6 199.9 694.3
08/05 10:00 26.4 72 17.92 20.9 24 32 1015.6 0 38.5 37.5 71.0 187.7 204.8 711.5
08/05 09:50 26.4 73 18.17 21.2 26 28 1015.6 0 39.0 37.9 72.1 190.7 208.5 724.3
08/05 09:40 26 73 17.77 20.8 28 33 1015.6 0 38.2 37.4 70.7 186.9 203.7 707.5
08/05 09:30 25.9 74 17.92 20.9 20 30 1015.7 0 38.6 37.7 71.5 188.9 206.2 716.2
08/05 09:20 25.7 74 17.72 20.7 17 20 1015.6 0 38.2 37.4 70.7 187.0 203.8 707.7
08/05 09:10 25.6 76 18.09 21.1 22 30 1015.5 0 39.0 38.2 72.5 191.7 209.5 727.8
08/05 09:00 25.5 74 17.52 20.5 22 35 1015.2 0 37.8 37.1 70.0 185.0 201.3 699.0
08/05 08:50 25.4 75 17.66 20.6 19 24 1015.1 0 38.1 37.4 70.7 186.9 203.6 707.1
08/05 08:40 25.3 74 17.32 20.3 20 28 1014.9 0 37.4 36.9 69.2 183.0 198.8 690.4
08/05 08:30 25.2 73 16.99 20 24 32 1014.9 0 36.7 36.3 67.8 179.3 194.2 674.5
08/05 08:20 25.2 74 17.23 20.2 20 32 1014.8 0 37.2 36.7 68.9 182.2 197.7 686.7
08/05 08:10 25.3 74 17.32 20.3 22 28 1014.7 0 37.4 36.8 69.2 183.0 198.8 690.3
08/05 08:00 25.2 73 16.99 20 26 37 1014.6 0 36.7 36.3 67.8 179.3 194.2 674.3
08/05 07:50 25.4 74 17.42 20.4 24 30 1014.5 0 37.6 37.0 69.6 183.9 200.0 694.5
08/05 07:40 25.2 73 16.99 20 24 30 1014.3 0 36.7 36.3 67.8 179.2 194.1 674.2
08/05 07:30 25 73 16.8 19.8 24 33 1014.3 0 36.3 36.0 67.1 177.4 191.9 666.3
08/05 07:20 24.7 74 16.75 19.8 30 33 1014 0 36.2 36.0 67.2 177.5 191.9 666.2
08/05 07:10 24.4 75 16.69 19.7 26 28 1013.9 0 36.1 36.1 67.1 177.5 191.7 665.7
08/05 07:00 24.2 76 16.72 19.7 20 30 1013.8 0 36.2 36.2 67.4 178.3 192.7 668.9
08/05 06:50 24.1 76 16.63 19.6 22 30 1013.9 0 36.0 36.1 67.1 177.4 191.6 665.2
08/05 06:40 23.9 77 16.66 19.6 24 30 1013.7 0 36.1 36.2 67.4 178.2 192.5 668.4
08/05 06:30 23.7 78 16.68 19.6 22 37 1013.7 0 36.2 36.3 67.7 178.9 193.4 671.2
08/05 06:20 23.9 77 16.66 19.6 20 26 1013.6 0 36.1 36.2 67.4 178.2 192.5 668.4
08/05 06:10 23.8 77 16.56 19.5 20 24 1013.5 0 35.9 36.1 67.1 177.2 191.3 664.1
08/05 06:00 23.8 76 16.35 19.3 20 30 1013.5 0 35.4 35.7 66.1 174.7 188.2 653.3
08/05 05:50 23.9 76 16.44 19.4 17 22 1013.4 0 35.6 35.8 66.4 175.6 189.3 657.0
08/05 05:40 23.9 76 16.44 19.4 20 26 1013.3 0 35.6 35.8 66.4 175.5 189.3 657.0
08/05 05:30 23.8 76 16.35 19.3 20 32 1013.2 0 35.4 35.7 66.1 174.7 188.2 653.2
08/05 05:20 23.8 77 16.56 19.5 22 28 1013.2 0 35.9 36.1 67.0 177.2 191.3 663.9
08/05 05:10 23.8 76 16.35 19.3 19 20 1013.1 0 35.4 35.7 66.1 174.7 188.2 653.1
08/05 05:00 23.7 76 16.26 19.2 19 28 1013 0 35.3 35.5 65.8 173.8 187.1 649.3
08/05 04:50 23.4 77 16.19 19.1 20 28 1012.9 0 35.1 35.5 65.7 173.6 186.8 648.3
08/05 04:40 23.4 77 16.19 19.1 17 22 1012.9 0 35.1 35.5 65.7 173.6 186.8 648.3
08/05 04:30 23.1 79 16.33 19.3 17 26 1012.8 0 35.5 35.9 66.6 176.0 189.6 658.0
08/05 04:20 22.3 83 16.39 19.3 17 19 1012.7 0 35.7 36.4 67.6 178.6 192.5 668.0
08/05 04:10 21.9 84 16.21 19.1 19 20 1012.7 0 35.3 36.2 67.1 177.3 190.8 662.1
08/05 04:00 21.6 84 15.93 18.8 15 22 1012.9 0 34.7 35.8 66.1 174.6 187.4 650.2
08/05 03:50 23.3 76 15.89 18.8 15 19 1012.8 0 34.5 35.0 64.4 170.3 182.6 633.8
08/05 03:40 23.8 74 15.92 18.9 15 19 1012.7 0 34.5 34.9 64.2 169.5 181.8 631.1
08/05 03:30 23.5 75 15.86 18.8 19 28 1012.7 0 34.4 34.9 64.1 169.5 181.7 630.6
08/05 03:20 23.7 75 16.04 19 15 22 1012.7 0 34.8 35.1 64.8 171.2 183.8 638.0
08/05 03:10 23.6 76 16.16 19.1 11 13 1012.8 0 35.1 35.4 65.4 172.8 185.8 645.0
08/05 03:00 23.8 76 16.35 19.3 17 22 1012.8 0 35.4 35.7 66.1 174.6 188.1 653.0
08/05 02:50 23.6 76 16.16 19.1 15 17 1012.8 0 35.1 35.4 65.4 172.8 185.8 645.0
08/05 02:40 23.6 76 16.16 19.1 15 20 1012.9 0 35.1 35.4 65.4 172.8 185.8 645.0
08/05 02:30 24 75 16.32 19.3 19 32 1012.9 0 35.4 35.5 65.8 173.8 187.2 649.8
08/05 02:20 23.3 77 16.1 19 15 17 1013.1 0 35.0 35.4 65.4 172.8 185.7 644.6
08/05 02:10 23.2 78 16.21 19.1 19 22 1013.2 0 35.2 35.7 66.0 174.4 187.6 651.1
08/05 02:00 21.7 83 15.83 18.7 15 20 1013.4 0 34.5 35.6 65.6 173.2 185.7 644.4
08/05 01:50 21.9 82 15.82 18.7 15 19 1013.4 0 34.5 35.5 65.4 172.7 185.1 642.2
08/05 01:40 22 82 15.91 18.8 17 19 1013.5 0 34.7 35.6 65.7 173.5 186.2 646.0
08/05 01:30 22.3 80 15.8 18.7 13 19 1013.5 0 34.4 35.3 64.9 171.5 183.8 637.8
08/05 01:20 22.2 81 15.9 18.8 15 19 1013.6 0 34.6 35.5 65.5 173.0 185.6 643.9
08/05 01:10 21.9 83 16.02 18.9 17 19 1013.6 0 34.9 35.9 66.3 175.1 188.1 652.6
08/05 01:00 22.3 80 15.8 18.7 15 19 1013.6 0 34.4 35.3 64.9 171.5 183.8 637.9
08/05 00:50 21.9 83 16.02 18.9 17 19 1013.7 0 34.9 35.9 66.3 175.1 188.1 652.7
08/05 00:40 21.9 83 16.02 18.9 17 17 1013.7 0 34.9 35.9 66.3 175.1 188.1 652.7
08/05 00:30 21.9 84 16.21 19.1 17 20 1013.8 0 35.3 36.2 67.2 177.5 191.0 662.6
08/05 00:20 21.8 85 16.31 19.2 19 19 1013.8 0 35.5 36.5 67.7 178.9 192.7 668.7
08/05 00:10 22 85 16.5 19.4 19 19 1013.9 0 35.9 36.7 68.4 180.8 195.1 677.0
08/05 00:00 22.3 83 16.39 19.3 17 22 1014 0 35.7 36.4 67.6 178.7 192.7 668.6
07/05 23:50 22.4 84 16.68 19.6 19 20 1014.1 0 36.3 36.9 68.9 182.1 196.8 683.0
07/05 23:40 22.9 80 16.35 19.3 15 17 1014.1 0 35.5 36.1 66.9 176.9 190.6 661.3
07/05 23:30 23.6 75 15.95 18.9 15 24 1014.1 0 34.6 35.1 64.5 170.5 182.9 634.9
07/05 23:20 23.6 76 16.16 19.1 13 20 1014.1 0 35.1 35.5 65.5 173.0 186.0 645.6
07/05 23:10 23.4 78 16.4 19.3 15 20 1014.1 0 35.6 36.0 66.7 176.3 190.0 659.6
07/05 23:00 23.6 77 16.38 19.3 17 26 1014.3 0 35.5 35.9 66.5 175.7 189.3 656.9
07/05 22:50 23.7 78 16.68 19.6 20 26 1014.2 0 36.1 36.4 67.7 179.0 193.4 671.4
07/05 22:40 23.8 78 16.78 19.7 17 19 1014.3 0 36.4 36.5 68.1 180.0 194.7 675.8
07/05 22:30 23.8 78 16.78 19.7 17 24 1014.4 0 36.4 36.5 68.1 180.0 194.7 675.8
07/05 22:20 24 77 16.75 19.7 20 28 1014.5 0 36.3 36.4 67.8 179.2 193.7 672.6
07/05 22:10 24 77 16.75 19.7 15 20 1014.6 0 36.3 36.4 67.8 179.2 193.7 672.6
07/05 22:00 24.1 77 16.85 19.8 15 24 1014.6 0 36.5 36.5 68.2 180.2 195.0 676.9
07/05 21:50 23.7 79 16.9 19.8 15 20 1014.8 0 36.6 36.8 68.8 181.8 196.8 683.1
07/05 21:40 23.7 79 16.9 19.8 11 13 1015 0 36.6 36.8 68.8 181.8 196.8 683.2
07/05 21:30 23.5 82 17.34 20.2 15 19 1014.9 0 37.6 37.7 71.0 187.6 203.9 708.0
07/05 21:20 23.6 81 17.23 20.1 15 17 1015 0 37.3 37.4 70.4 186.1 202.0 701.3
07/05 21:10 23.7 81 17.32 20.2 17 19 1015.1 0 37.5 37.6 70.7 186.9 203.1 705.2
07/05 21:00 23.8 81 17.42 20.3 13 19 1015 0 37.7 37.7 71.1 187.9 204.3 709.5
07/05 20:50 24.1 79 17.28 20.2 15 17 1014.9 0 37.4 37.3 70.2 185.4 201.4 699.3
07/05 20:40 24.3 78 17.26 20.2 17 19 1014.7 0 37.3 37.2 69.9 184.7 200.5 696.3
07/05 20:30 24 80 17.4 20.3 13 20 1014.6 0 37.6 37.6 70.8 187.1 203.4 706.4
07/05 20:20 24.2 79 17.38 20.3 17 17 1014.6 0 37.6 37.4 70.5 186.4 202.6 703.5
07/05 20:10 24.1 81 17.72 20.6 17 19 1014.5 0 38.3 38.1 72.2 190.8 208.0 722.2
07/05 20:00 24.2 79 17.38 20.3 15 22 1014.4 0 37.6 37.4 70.5 186.3 202.6 703.4

Last Refresh: 08-May-2026 12:07:36

Bureau of Meteorology